Terminal Aerodrome Forecast
Issued by NWS Twin Cities, MN

Home | Current Version | Previous Version | Text Only | Print | Product List | Glossary On
Versions: 1 2 3 4 5 6 7 8 9 10 11 12 13 14 15
000
FTUS43 KMPX 232300 RRA
TAFEAU
TAF
KEAU 232351Z 2400/2424 18010KT 6SM -RA SCT040 OVC070
     FM240400 14009KT P6SM SCT020 OVC040
     FM240600 12013G20KT 5SM -RA BR SCT012 OVC025
     FM241000 13014G20KT 3SM RA BR OVC007
      TEMPO 2411/2415 2SM -RA BR
     FM241600 15011G16KT 4SM -RA OVC010
     FM242100 23007KT 6SM -RA BR SCT010 BKN020=

USA.gov is the U.S. government's official web portal to all federal, state and local government web resources and services.